createdAt,value
2023-03-25T00:00:15.523Z,92.50
2023-03-25T00:02:45.341Z,92.90
2023-03-25T00:05:15.062Z,92.30
2023-03-25T00:07:46.124Z,91.90
2023-03-25T00:10:14.094Z,99.90
2023-03-25T00:12:42.809Z,92.60
2023-03-25T00:15:12.528Z,92.50
2023-03-25T00:17:39.735Z,92.20
2023-03-25T00:20:11.664Z,91.70
2023-03-25T00:22:44.657Z,92.30
2023-03-25T00:25:17.614Z,92.10
2023-03-25T00:27:46.571Z,92.40
2023-03-25T00:30:16.058Z,92.50
2023-03-25T00:32:46.274Z,92.30
2023-03-25T00:35:14.034Z,92.10
2023-03-25T00:37:41.371Z,92.80
2023-03-25T00:40:09.067Z,92.40
2023-03-25T00:42:35.994Z,92.20
2023-03-25T00:45:03.429Z,92.30
2023-03-25T00:47:31.577Z,92.90
2023-03-25T00:49:58.446Z,92.50
2023-03-25T00:52:25.314Z,93.00
2023-03-25T00:54:52.891Z,92.60
2023-03-25T00:57:19.747Z,92.90
2023-03-25T00:59:46.529Z,92.70
2023-03-25T01:02:13.507Z,93.20
2023-03-25T01:04:43.071Z,93.30
2023-03-25T01:07:10.143Z,92.90
2023-03-25T01:09:37.641Z,93.00
2023-03-25T01:12:04.755Z,92.90
2023-03-25T01:14:31.558Z,92.70
2023-03-25T01:16:59.811Z,92.80
2023-03-25T01:19:26.895Z,93.30
2023-03-25T01:21:54.268Z,93.70
2023-03-25T01:24:21.123Z,93.70
2023-03-25T01:26:48.351Z,92.90
2023-03-25T01:29:17.698Z,93.80
2023-03-25T01:31:44.831Z,93.60
2023-03-25T01:34:12.836Z,93.10
2023-03-25T01:36:40.584Z,93.40
2023-03-25T01:39:09.005Z,93.60
2023-03-25T01:41:49.119Z,93.70
2023-03-25T01:44:19.842Z,94.00
2023-03-25T01:46:53.705Z,94.10
2023-03-25T01:49:33.257Z,93.80
2023-03-25T01:52:04.512Z,94.10
2023-03-25T01:54:31.504Z,94.60
2023-03-25T01:56:59.034Z,93.70
2023-03-25T01:59:28.552Z,94.20
2023-03-25T02:01:58.486Z,94.10
2023-03-25T02:04:39.341Z,95.30
2023-03-25T02:07:08.763Z,94.80
2023-03-25T02:09:36.325Z,95.20
2023-03-25T02:12:03.166Z,94.90
2023-03-25T02:14:35.027Z,94.20
2023-03-25T02:17:22.228Z,94.40
2023-03-25T02:20:26.604Z,94.50
2023-03-25T02:23:28.481Z,94.60
2023-03-25T02:26:33.360Z,94.90
2023-03-25T02:29:26.797Z,94.70
2023-03-25T02:32:18.420Z,94.60
2023-03-25T02:35:00.604Z,94.80
2023-03-25T02:37:30.361Z,95.00
2023-03-25T02:40:07.415Z,95.20
2023-03-25T02:43:08.245Z,95.00
2023-03-25T02:45:42.325Z,95.30
2023-03-25T02:48:21.598Z,95.00
2023-03-25T02:50:57.885Z,95.30
2023-03-25T02:53:33.544Z,95.30
2023-03-25T02:56:14.876Z,95.20
2023-03-25T02:58:44.280Z,95.20
2023-03-25T03:01:15.097Z,95.20
2023-03-25T03:03:42.498Z,96.20
2023-03-25T03:06:17.690Z,95.60
2023-03-25T03:08:50.680Z,96.10
2023-03-25T03:11:46.254Z,95.70
2023-03-25T03:14:25.009Z,96.30
2023-03-25T03:17:22.247Z,95.90
2023-03-25T03:19:56.496Z,95.60
2023-03-25T03:22:52.977Z,96.10
2023-03-25T03:25:29.673Z,96.10
2023-03-25T03:28:05.968Z,96.20
2023-03-25T03:31:09.495Z,96.20
2023-03-25T03:33:41.016Z,96.10
2023-03-25T03:36:13.666Z,96.20
2023-03-25T03:38:47.922Z,96.20
2023-03-25T03:41:20.468Z,96.40
2023-03-25T03:44:02.884Z,96.50
2023-03-25T03:46:42.082Z,96.60
2023-03-25T03:49:17.901Z,96.50
2023-03-25T03:51:55.271Z,96.50
2023-03-25T03:54:28.000Z,96.40
2023-03-25T03:56:54.832Z,96.70
2023-03-25T03:59:34.694Z,96.60
2023-03-25T04:02:06.651Z,96.80
2023-03-25T04:04:34.985Z,96.70
2023-03-25T04:07:19.657Z,96.70
2023-03-25T04:10:18.750Z,97.30
2023-03-25T04:12:51.095Z,97.00
2023-03-25T04:15:18.354Z,96.80
2023-03-25T04:17:45.455Z,97.20
2023-03-25T04:20:23.731Z,96.90
2023-03-25T04:22:52.428Z,97.30
2023-03-25T04:25:21.601Z,97.40
2023-03-25T04:27:58.908Z,97.40
2023-03-25T04:30:29.477Z,96.80
2023-03-25T04:32:57.162Z,96.90
2023-03-25T04:35:25.940Z,96.80
2023-03-25T04:37:57.787Z,99.90
2023-03-25T04:40:25.987Z,96.70
2023-03-25T04:42:53.619Z,96.70
2023-03-25T04:45:21.741Z,97.10
2023-03-25T04:47:49.929Z,97.50
2023-03-25T04:50:30.258Z,96.80
2023-03-25T04:52:58.296Z,97.20
2023-03-25T04:55:25.905Z,97.20
2023-03-25T04:57:54.669Z,97.50
2023-03-25T05:00:24.337Z,97.20
2023-03-25T05:02:54.176Z,97.40
2023-03-25T05:05:24.382Z,97.50
2023-03-25T05:07:53.732Z,97.10
2023-03-25T05:10:23.195Z,97.20
2023-03-25T05:12:50.439Z,97.60
2023-03-25T05:15:17.591Z,96.80
2023-03-25T05:17:45.014Z,97.30
2023-03-25T05:20:13.584Z,97.10
2023-03-25T05:22:41.979Z,97.70
2023-03-25T05:25:10.717Z,97.30
2023-03-25T05:27:38.799Z,97.10
2023-03-25T05:30:07.564Z,97.10
2023-03-25T05:32:34.591Z,97.30
2023-03-25T05:35:02.426Z,97.30
2023-03-25T05:37:29.621Z,97.50
2023-03-25T05:39:56.634Z,97.40
2023-03-25T05:42:23.958Z,97.40
2023-03-25T05:44:51.677Z,97.30
2023-03-25T05:47:21.936Z,97.80
2023-03-25T05:49:50.002Z,98.20
2023-03-25T05:52:18.050Z,97.60
2023-03-25T05:54:46.460Z,97.80
2023-03-25T05:57:13.836Z,97.70
2023-03-25T05:59:40.785Z,97.30
2023-03-25T06:02:12.361Z,97.50
2023-03-25T06:04:41.385Z,98.10
2023-03-25T06:07:20.154Z,98.10
2023-03-25T06:09:47.975Z,98.10
2023-03-25T06:12:17.813Z,97.60
2023-03-25T06:14:45.859Z,98.00
2023-03-25T06:17:19.038Z,97.50
2023-03-25T06:19:46.746Z,97.70
2023-03-25T06:22:13.692Z,98.10
2023-03-25T06:24:41.684Z,97.70
2023-03-25T06:27:14.700Z,98.20
2023-03-25T06:29:42.011Z,98.20
2023-03-25T06:32:11.672Z,98.10
2023-03-25T06:34:39.370Z,98.20
2023-03-25T06:37:06.540Z,97.90
2023-03-25T06:39:33.892Z,98.30
2023-03-25T06:42:01.527Z,97.70
2023-03-25T06:44:28.458Z,97.80
2023-03-25T06:46:55.291Z,97.70
2023-03-25T06:49:22.734Z,98.30
2023-03-25T06:51:49.557Z,98.00
2023-03-25T06:54:16.361Z,97.90
2023-03-25T06:56:43.253Z,97.80
2023-03-25T06:59:10.073Z,98.70
2023-03-25T07:01:36.894Z,99.90
2023-03-25T07:04:03.832Z,97.90
2023-03-25T07:06:31.599Z,98.00
2023-03-25T07:08:58.474Z,98.00
2023-03-25T07:11:30.510Z,98.20
2023-03-25T07:13:57.373Z,98.80
2023-03-25T07:16:24.311Z,98.30
2023-03-25T07:18:51.596Z,98.30
2023-03-25T07:21:19.364Z,98.60
2023-03-25T07:23:46.235Z,98.40
2023-03-25T07:26:16.481Z,98.40
2023-03-25T07:28:43.361Z,98.90
2023-03-25T07:31:13.056Z,98.40
2023-03-25T07:33:40.750Z,98.50
2023-03-25T07:36:10.758Z,98.70
2023-03-25T07:38:37.691Z,98.40
2023-03-25T07:41:11.384Z,98.10
2023-03-25T07:43:39.050Z,99.00
2023-03-25T07:46:06.545Z,98.90
2023-03-25T07:48:33.487Z,98.50
2023-03-25T07:51:00.372Z,98.80
2023-03-25T07:53:27.617Z,98.20
2023-03-25T07:55:54.485Z,98.50
2023-03-25T07:58:21.340Z,98.50
2023-03-25T08:00:48.155Z,98.60
2023-03-25T08:03:16.293Z,98.50
2023-03-25T08:05:47.628Z,98.90
2023-03-25T08:08:15.523Z,99.00
2023-03-25T08:10:43.794Z,98.60
2023-03-25T08:13:12.113Z,99.20
2023-03-25T08:15:40.252Z,98.70
2023-03-25T08:18:07.476Z,98.90
2023-03-25T08:20:36.015Z,98.60
2023-03-25T08:23:03.300Z,98.60
2023-03-25T08:25:33.122Z,98.70
2023-03-25T08:28:00.077Z,98.40
2023-03-25T08:30:26.898Z,98.40
2023-03-25T08:32:56.961Z,99.10
2023-03-25T08:35:24.295Z,99.10
2023-03-25T08:37:52.024Z,98.40
2023-03-25T08:40:19.967Z,98.70
2023-03-25T08:42:47.066Z,98.30
2023-03-25T08:45:15.591Z,98.40
2023-03-25T08:47:43.996Z,98.10
2023-03-25T08:50:11.525Z,98.80
2023-03-25T08:52:38.412Z,98.60
2023-03-25T08:55:09.192Z,98.50
2023-03-25T08:57:38.208Z,98.30
2023-03-25T09:00:15.040Z,98.60
2023-03-25T09:02:42.925Z,98.80
2023-03-25T09:05:11.487Z,98.90
2023-03-25T09:07:39.225Z,98.40
2023-03-25T09:10:07.360Z,99.10
2023-03-25T09:12:34.258Z,98.60
2023-03-25T09:15:01.110Z,98.50
2023-03-25T09:17:27.993Z,99.30
2023-03-25T09:19:55.484Z,98.90
2023-03-25T09:22:23.842Z,98.70
2023-03-25T09:24:50.832Z,98.60
2023-03-25T09:27:17.760Z,98.70
2023-03-25T09:29:44.567Z,99.00
2023-03-25T09:32:11.330Z,98.40
2023-03-25T09:34:39.137Z,98.70
2023-03-25T09:37:05.964Z,99.80
2023-03-25T09:39:32.812Z,98.80
2023-03-25T09:42:22.905Z,98.80
2023-03-25T09:45:07.193Z,99.60
2023-03-25T09:47:40.358Z,99.40
2023-03-25T09:50:13.768Z,99.10
2023-03-25T09:53:01.821Z,99.00
2023-03-25T09:55:32.474Z,99.50
2023-03-25T09:58:27.486Z,99.40
2023-03-25T10:01:01.773Z,99.80
2023-03-25T10:03:52.959Z,99.10
2023-03-25T10:06:21.835Z,99.30
2023-03-25T10:08:54.482Z,99.10
2023-03-25T10:11:21.341Z,99.90
2023-03-25T10:14:07.374Z,99.10
2023-03-25T10:17:13.424Z,99.10
2023-03-25T10:20:06.016Z,99.50
2023-03-25T10:22:38.598Z,99.70
2023-03-25T10:25:13.888Z,99.90
2023-03-25T10:27:49.654Z,99.10
2023-03-25T10:30:24.882Z,99.30
2023-03-25T10:33:00.678Z,99.50
2023-03-25T10:35:40.587Z,99.50
2023-03-25T10:38:14.422Z,99.30
2023-03-25T10:40:50.524Z,99.20
2023-03-25T10:43:23.588Z,99.70
2023-03-25T10:45:54.684Z,99.70
2023-03-25T10:48:28.688Z,99.70
2023-03-25T10:51:01.204Z,99.30
2023-03-25T10:53:29.320Z,99.60
2023-03-25T10:56:04.838Z,99.50
2023-03-25T10:58:32.951Z,99.50
2023-03-25T11:01:03.011Z,99.70
2023-03-25T11:03:34.641Z,99.90
2023-03-25T11:06:02.512Z,99.70
2023-03-25T11:08:29.794Z,99.60
2023-03-25T11:10:57.563Z,99.80
2023-03-25T11:13:29.986Z,99.70
2023-03-25T11:16:03.698Z,99.90
2023-03-25T11:18:40.667Z,99.60
2023-03-25T11:21:11.918Z,99.70
2023-03-25T11:23:48.084Z,99.80
2023-03-25T11:26:21.468Z,99.50
2023-03-25T11:29:01.134Z,99.60
2023-03-25T11:31:30.827Z,99.90
2023-03-25T11:34:04.915Z,99.60
2023-03-25T11:36:36.240Z,99.60
2023-03-25T11:39:26.008Z,99.40
2023-03-25T11:41:54.188Z,99.40
2023-03-25T11:44:29.401Z,99.40
2023-03-25T11:47:06.869Z,99.30
2023-03-25T11:49:39.421Z,99.30
2023-03-25T11:52:13.437Z,99.30
2023-03-25T11:54:42.117Z,99.10
2023-03-25T11:57:17.453Z,98.80
2023-03-25T11:59:46.627Z,99.90
2023-03-25T12:02:19.001Z,99.00
2023-03-25T12:04:58.247Z,99.80
2023-03-25T12:07:25.759Z,98.80
2023-03-25T12:09:58.432Z,98.70
2023-03-25T12:12:56.653Z,98.90
2023-03-25T12:15:47.074Z,98.50
2023-03-25T12:18:48.267Z,98.40
2023-03-25T12:21:47.254Z,98.50
2023-03-25T12:24:46.352Z,98.40
2023-03-25T12:28:04.206Z,98.00
2023-03-25T12:31:01.340Z,97.90
2023-03-25T12:33:46.375Z,98.30
2023-03-25T12:36:24.623Z,97.40
2023-03-25T12:38:57.849Z,97.80
2023-03-25T12:41:27.283Z,97.40
2023-03-25T12:44:31.896Z,97.40
2023-03-25T12:47:01.507Z,97.90
2023-03-25T12:49:42.288Z,97.10
2023-03-25T12:52:29.948Z,97.50
2023-03-25T12:55:22.306Z,96.90
2023-03-25T12:58:04.042Z,97.00
2023-03-25T13:00:41.997Z,96.70
2023-03-25T13:03:20.634Z,96.50
2023-03-25T13:06:17.199Z,96.80
2023-03-25T13:09:04.941Z,95.80
2023-03-25T13:12:11.792Z,95.70
2023-03-25T13:15:17.836Z,95.60
2023-03-25T13:18:16.234Z,95.70
2023-03-25T13:20:49.794Z,94.90
2023-03-25T13:23:22.052Z,95.70
2023-03-25T13:25:52.035Z,94.60
2023-03-25T13:28:26.237Z,95.00
2023-03-25T13:30:54.634Z,94.50
2023-03-25T13:33:29.122Z,94.60
2023-03-25T13:36:26.133Z,94.70
2023-03-25T13:39:00.290Z,94.20
2023-03-25T13:41:41.100Z,94.50
2023-03-25T13:44:07.850Z,94.00
2023-03-25T13:46:40.602Z,93.90
2023-03-25T13:49:38.162Z,94.20
2023-03-25T13:52:07.487Z,94.50
2023-03-25T13:55:06.500Z,93.40
2023-03-25T13:57:54.653Z,93.50
2023-03-25T14:00:32.822Z,94.20
2023-03-25T14:03:14.621Z,93.00
2023-03-25T14:06:11.446Z,93.20
2023-03-25T14:09:09.333Z,93.00
2023-03-25T14:12:14.557Z,92.90
2023-03-25T14:14:47.071Z,92.80
2023-03-25T14:17:16.283Z,92.30
2023-03-25T14:19:49.887Z,92.50
2023-03-25T14:22:20.384Z,92.30
2023-03-25T14:24:48.940Z,91.90
2023-03-25T14:27:27.953Z,91.80
2023-03-25T14:30:02.285Z,91.80
2023-03-25T14:32:32.960Z,91.60
2023-03-25T14:35:33.843Z,91.60
2023-03-25T14:38:09.312Z,91.50
2023-03-25T14:43:46.312Z,91.40
2023-03-25T14:46:13.479Z,91.40
2023-03-25T14:49:05.857Z,91.20
2023-03-25T14:51:34.900Z,91.30
2023-03-25T14:54:29.858Z,91.30
2023-03-25T14:57:18.178Z,91.10
2023-03-25T15:00:03.344Z,91.20
2023-03-25T15:02:34.102Z,91.20
2023-03-25T15:05:21.490Z,91.90
2023-03-25T15:08:19.102Z,91.20
2023-03-25T15:10:51.443Z,91.40
2023-03-25T15:13:24.896Z,91.40
2023-03-25T15:15:54.541Z,91.20
2023-03-25T15:18:37.131Z,91.80
2023-03-25T15:21:05.548Z,91.30
2023-03-25T15:23:38.956Z,99.90
2023-03-25T15:26:13.072Z,91.30
2023-03-25T15:29:01.254Z,91.70
2023-03-25T15:31:49.486Z,92.30
2023-03-25T15:34:42.372Z,92.30
2023-03-25T15:37:45.721Z,90.80
2023-03-25T15:40:40.981Z,87.50
2023-03-25T15:43:34.774Z,81.20
2023-03-25T15:46:25.525Z,74.00
2023-03-25T15:48:55.013Z,66.70
2023-03-25T15:51:51.536Z,72.90
2023-03-25T15:54:24.273Z,52.70
2023-03-25T15:56:54.707Z,46.50
2023-03-25T15:59:31.746Z,41.10
2023-03-25T16:02:02.734Z,34.60
2023-03-25T16:04:48.416Z,30.30
2023-03-25T16:07:18.450Z,25.10
2023-03-25T16:09:47.798Z,20.90
2023-03-25T16:12:23.943Z,15.90
2023-03-25T16:14:52.374Z,12.40
2023-03-25T16:17:21.849Z,7.60
2023-03-25T16:19:55.667Z,3.40
2023-03-25T16:22:34.475Z,1.00
2023-03-25T16:25:03.961Z,1.00
2023-03-25T16:27:36.879Z,1.00
2023-03-25T16:30:30.536Z,1.00
2023-03-25T16:33:17.191Z,1.00
2023-03-25T16:35:46.947Z,1.00
2023-03-25T16:38:19.396Z,1.00
2023-03-25T16:40:49.844Z,1.00
2023-03-25T16:43:22.195Z,1.00
2023-03-25T16:45:51.900Z,1.00
2023-03-25T16:48:23.408Z,1.00
2023-03-25T16:50:53.762Z,1.00
2023-03-25T16:53:22.751Z,1.00
2023-03-25T16:55:56.366Z,1.00
2023-03-25T16:58:25.804Z,1.00
2023-03-25T17:00:55.369Z,1.00
2023-03-25T17:03:44.763Z,1.00
2023-03-25T17:06:27.479Z,1.00
2023-03-25T17:08:58.848Z,1.00
2023-03-25T17:11:29.083Z,1.00
2023-03-25T17:14:02.506Z,1.00
2023-03-25T17:16:32.973Z,1.00
2023-03-25T17:19:01.218Z,1.00
2023-03-25T17:21:33.970Z,1.00
2023-03-25T17:24:22.481Z,1.00
2023-03-25T17:27:04.052Z,1.00
2023-03-25T17:29:31.280Z,1.00
2023-03-25T17:31:59.627Z,1.00
2023-03-25T17:34:27.629Z,1.00
2023-03-25T17:37:08.382Z,1.00
2023-03-25T17:39:36.369Z,1.00
2023-03-25T17:42:06.252Z,1.00
2023-03-25T17:44:39.116Z,1.00
2023-03-25T17:47:08.064Z,1.00
2023-03-25T17:49:34.800Z,1.00
2023-03-25T17:52:01.848Z,1.00
2023-03-25T17:54:28.870Z,1.00
2023-03-25T17:56:55.895Z,1.00
2023-03-25T17:59:25.811Z,1.00
2023-03-25T18:01:53.316Z,1.00
2023-03-25T18:04:21.385Z,1.00
2023-03-25T18:06:48.514Z,1.00
2023-03-25T18:09:15.706Z,1.00
2023-03-25T18:11:42.814Z,1.00
2023-03-25T18:14:09.536Z,1.00
2023-03-25T18:16:36.350Z,1.00
2023-03-25T18:19:03.141Z,1.00
2023-03-25T18:21:30.082Z,1.00
2023-03-25T18:23:57.016Z,1.00
2023-03-25T18:26:23.990Z,1.00
2023-03-25T18:28:50.733Z,1.00
2023-03-25T18:31:18.010Z,1.00
2023-03-25T18:33:46.946Z,1.00
2023-03-25T18:36:14.147Z,1.00
2023-03-25T18:38:41.733Z,1.00
2023-03-25T18:41:11.489Z,1.00
2023-03-25T18:43:38.219Z,1.00
2023-03-25T18:46:05.281Z,1.00
2023-03-25T18:48:32.128Z,1.00
2023-03-25T18:51:00.831Z,1.00
2023-03-25T18:53:29.134Z,1.00
2023-03-25T18:56:02.184Z,1.00
2023-03-25T18:58:32.041Z,1.00
2023-03-25T19:00:59.946Z,1.00
2023-03-25T19:03:31.548Z,1.00
2023-03-25T19:06:00.318Z,1.00
2023-03-25T19:08:27.960Z,1.00
2023-03-25T19:11:01.765Z,1.00
2023-03-25T19:13:35.198Z,1.00
2023-03-25T19:16:02.040Z,1.00
2023-03-25T19:18:32.130Z,1.00
2023-03-25T19:20:59.829Z,1.00
2023-03-25T19:23:27.155Z,1.00
2023-03-25T19:25:55.156Z,1.00
2023-03-25T19:28:23.112Z,1.00
2023-03-25T19:30:51.760Z,1.00
2023-03-25T19:33:19.637Z,10.80
2023-03-25T19:35:54.949Z,1.00
2023-03-25T19:38:25.791Z,1.00
2023-03-25T19:41:03.750Z,1.00
2023-03-25T19:43:31.074Z,1.00
2023-03-25T19:45:59.290Z,1.00
2023-03-25T19:48:27.063Z,1.40
2023-03-25T19:50:57.289Z,2.40
2023-03-25T19:53:25.778Z,3.30
2023-03-25T19:55:52.889Z,4.00
2023-03-25T19:58:22.725Z,4.90
2023-03-25T20:00:51.259Z,6.40
2023-03-25T20:03:22.049Z,6.70
2023-03-25T20:05:59.702Z,7.10
2023-03-25T20:08:27.008Z,7.50
2023-03-25T20:10:54.180Z,8.30
2023-03-25T20:13:21.444Z,8.30
2023-03-25T20:15:51.661Z,9.40
2023-03-25T20:18:18.889Z,9.50
2023-03-25T20:20:45.935Z,10.00
2023-03-25T20:23:12.751Z,11.00
2023-03-25T20:25:39.644Z,11.30
2023-03-25T20:28:06.488Z,11.30
2023-03-25T20:30:35.553Z,12.40
2023-03-25T20:33:02.581Z,12.40
2023-03-25T20:35:30.590Z,13.00
2023-03-25T20:37:57.572Z,13.90
2023-03-25T20:40:33.708Z,14.20
2023-03-25T20:43:08.767Z,14.30
2023-03-25T20:45:35.715Z,15.10
2023-03-25T20:48:02.543Z,16.10
2023-03-25T20:50:29.377Z,16.30
2023-03-25T20:52:56.400Z,16.70
2023-03-25T20:55:23.619Z,17.50
2023-03-25T20:57:50.494Z,17.80
2023-03-25T21:00:20.002Z,18.60
2023-03-25T21:05:14.406Z,19.20
2023-03-25T21:07:41.376Z,20.70
2023-03-25T21:10:09.107Z,20.50
2023-03-25T21:12:43.711Z,21.20
2023-03-25T21:15:13.223Z,21.70
2023-03-25T21:17:40.672Z,22.30
2023-03-25T21:20:08.317Z,22.50
2023-03-25T21:22:42.543Z,23.50
2023-03-25T21:25:10.070Z,23.40
2023-03-25T21:27:39.087Z,24.10
2023-03-25T21:30:07.789Z,24.40
2023-03-25T21:32:34.515Z,25.00
2023-03-25T21:35:01.254Z,25.30
2023-03-25T21:37:29.133Z,25.70
2023-03-25T21:39:58.129Z,26.10
2023-03-25T21:42:25.109Z,42.60
2023-03-25T21:44:51.876Z,26.60
2023-03-25T21:47:18.686Z,28.00
2023-03-25T21:49:45.418Z,27.60
2023-03-25T21:52:13.120Z,29.10
2023-03-25T21:54:43.561Z,28.90
2023-03-25T21:57:11.298Z,29.10
2023-03-25T21:59:38.507Z,29.50
2023-03-25T22:02:05.983Z,29.60
2023-03-25T22:04:34.872Z,29.90
2023-03-25T22:07:01.670Z,30.00
2023-03-25T22:09:28.553Z,30.50
2023-03-25T22:11:55.890Z,30.40
2023-03-25T22:14:22.882Z,31.50
2023-03-25T22:16:49.762Z,31.90
2023-03-25T22:19:16.594Z,31.70
2023-03-25T22:21:43.503Z,31.90
2023-03-25T22:24:10.505Z,32.60
2023-03-25T22:26:42.968Z,33.30
2023-03-25T22:29:10.921Z,33.90
2023-03-25T22:31:40.848Z,34.40
2023-03-25T22:34:15.206Z,33.30
2023-03-25T22:36:49.509Z,34.90
2023-03-25T22:39:20.909Z,34.60
2023-03-25T22:41:47.701Z,35.70
2023-03-25T22:44:16.986Z,35.30
2023-03-25T22:46:45.004Z,35.90
2023-03-25T22:49:11.818Z,36.10
2023-03-25T22:51:38.497Z,37.10
2023-03-25T22:54:05.468Z,38.10
2023-03-25T22:56:35.765Z,37.80
2023-03-25T22:59:04.624Z,38.70
2023-03-25T23:01:31.996Z,38.60
2023-03-25T23:03:59.391Z,38.80
2023-03-25T23:06:26.664Z,39.60
2023-03-25T23:08:56.956Z,38.60
2023-03-25T23:11:26.601Z,39.70
2023-03-25T23:13:56.667Z,39.60
2023-03-25T23:16:25.996Z,39.00
2023-03-25T23:18:53.400Z,40.10
2023-03-25T23:21:23.314Z,40.00
2023-03-25T23:23:52.910Z,40.20
2023-03-25T23:26:29.876Z,41.30
2023-03-25T23:29:00.544Z,41.00
2023-03-25T23:31:33.561Z,40.50
2023-03-25T23:34:06.380Z,41.40
2023-03-25T23:36:36.305Z,41.00
2023-03-25T23:39:06.389Z,41.60
2023-03-25T23:41:33.822Z,42.20
2023-03-25T23:44:00.639Z,42.20
2023-03-25T23:46:27.630Z,42.00
2023-03-25T23:49:01.823Z,42.20
2023-03-25T23:51:32.934Z,43.10
2023-03-25T23:53:59.656Z,42.50
2023-03-25T23:56:26.365Z,43.30
2023-03-25T23:58:53.498Z,43.40
